Time;durP1;ratioP1;P1;durP2;ratioP2;P2;SDS_P1;SDS_P2;PMS_P1;PMS_P2;Temp;Humidity;BMP_temperature;BMP_pressure;BME280_temperature;BME280_humidity;BME280_pressure;Samples;Min_cycle;Max_cycle;Signal;HPM_P1;HPM_P2
2021/10/17 00:00:03;;;;;;;;;;;3.10;99.90;;;;;;5061383;28;19935;-84
2021/10/17 00:02:29;;;;;;;;;;;3.20;99.90;;;;;;5078261;28;19908;-85
2021/10/17 00:04:54;;;;;;;;;;;3.40;99.90;;;;;;5076504;28;19931;-84
2021/10/17 00:07:20;;;;;;;;;;;3.50;99.90;;;;;;5076230;28;19952;-85
2021/10/17 00:09:45;;;;;;;;;;;3.50;99.90;;;;;;5077915;28;19915;-84
2021/10/17 00:12:11;;;;;;;;;;;3.50;99.90;;;;;;5075942;28;19915;-84
2021/10/17 00:14:37;;;;;;;;;;;3.60;99.90;;;;;;5058347;28;19909;-84
2021/10/17 00:17:03;;;;;;;;;;;3.60;99.90;;;;;;5058237;28;19944;-85
2021/10/17 00:19:29;;;;;;;;;;;3.70;99.90;;;;;;5076982;28;19912;-84
2021/10/17 00:21:54;;;;;;;;;;;3.70;99.90;;;;;;5071571;28;19909;-84
2021/10/17 00:24:20;;;;;;;;;;;3.70;99.90;;;;;;5075125;28;19908;-84
2021/10/17 00:26:45;;;;;;;;;;;3.80;99.90;;;;;;5075407;28;20381;-84
2021/10/17 00:29:11;;;;;;;;;;;3.90;99.90;;;;;;5075386;28;19984;-84
2021/10/17 00:31:36;;;;;;;;;;;3.90;99.90;;;;;;5076120;28;19952;-84
2021/10/17 00:34:02;;;;;;;;;;;4.00;99.90;;;;;;5077078;28;19913;-84
2021/10/17 00:36:28;;;;;;;;;;;4.00;99.90;;;;;;5078750;28;19908;-84
2021/10/17 00:38:54;;;;;;;;;;;4.00;99.90;;;;;;5076001;28;20011;-84
2021/10/17 00:41:20;;;;;;;;;;;4.00;99.90;;;;;;5058980;28;19908;-84
2021/10/17 00:43:46;;;;;;;;;;;4.10;99.90;;;;;;5076360;28;19908;-85
2021/10/17 00:46:18;;;;;;;;;;;4.20;99.90;;;;;;5077103;28;19966;-85
2021/10/17 00:48:44;;;;;;;;;;;4.20;99.90;;;;;;5058763;28;19909;-84
2021/10/17 00:51:10;;;;;;;;;;;4.30;99.90;;;;;;5058792;28;19958;-85
2021/10/17 00:53:36;;;;;;;;;;;4.20;99.90;;;;;;5058730;28;20308;-85
2021/10/17 00:56:01;;;;;;;;;;;4.30;99.90;;;;;;5076213;28;19917;-84
2021/10/17 00:58:27;;;;;;;;;;;4.30;99.90;;;;;;5074696;28;19979;-84
2021/10/17 01:00:53;;;;;;;;;;;4.30;99.90;;;;;;5074738;28;19909;-84
2021/10/17 01:03:19;;;;;;;;;;;4.40;99.90;;;;;;5075459;28;19995;-84
2021/10/17 01:05:45;;;;;;;;;;;4.40;99.90;;;;;;5075452;28;19908;-84
2021/10/17 01:08:10;;;;;;;;;;;4.40;99.90;;;;;;5075444;28;19909;-85
2021/10/17 01:10:36;;;;;;;;;;;4.40;99.90;;;;;;5074359;28;20289;-84
2021/10/17 01:13:01;;;;;;;;;;;4.40;99.90;;;;;;5074565;28;19919;-85
2021/10/17 01:15:27;;;;;;;;;;;4.50;99.90;;;;;;5073476;28;19996;-85
2021/10/17 01:17:52;;;;;;;;;;;4.50;99.90;;;;;;5072711;28;19915;-84
2021/10/17 01:20:18;;;;;;;;;;;4.50;99.90;;;;;;5073880;28;20327;-84
2021/10/17 01:22:44;;;;;;;;;;;4.50;99.90;;;;;;5070165;28;19909;-84
2021/10/17 01:25:10;;;;;;;;;;;4.50;99.90;;;;;;5056498;28;19909;-84
2021/10/17 01:27:36;;;;;;;;;;;4.50;99.90;;;;;;5056785;28;19953;-85
2021/10/17 01:30:02;;;;;;;;;;;4.50;99.90;;;;;;5074757;28;19954;-85
2021/10/17 01:32:27;;;;;;;;;;;4.40;99.90;;;;;;5056637;28;20380;-84
2021/10/17 01:34:53;;;;;;;;;;;4.40;99.90;;;;;;5072788;28;19967;-85
2021/10/17 01:37:18;;;;;;;;;;;4.50;99.90;;;;;;5072455;28;19963;-85
2021/10/17 01:39:43;;;;;;;;;;;4.50;99.90;;;;;;5073564;28;19913;-85
2021/10/17 01:42:09;;;;;;;;;;;4.40;99.90;;;;;;5072385;28;19908;-84
2021/10/17 01:44:36;;;;;;;;;;;4.40;99.90;;;;;;5072186;28;20292;-85
2021/10/17 01:47:04;;;;;;;;;;;4.40;99.90;;;;;;5055811;28;19908;-85
2021/10/17 01:49:29;;;;;;;;;;;4.40;99.90;;;;;;5073856;28;19909;-85
2021/10/17 01:51:55;;;;;;;;;;;4.40;99.90;;;;;;5073810;28;20368;-85
2021/10/17 01:54:20;;;;;;;;;;;4.50;99.90;;;;;;5072114;28;19908;-85
2021/10/17 01:56:46;;;;;;;;;;;4.50;99.90;;;;;;5073087;28;19915;-84
2021/10/17 01:59:11;;;;;;;;;;;4.50;99.90;;;;;;5072010;28;19979;-85
2021/10/17 02:01:37;;;;;;;;;;;4.60;99.90;;;;;;5072087;28;19915;-84
2021/10/17 02:04:04;;;;;;;;;;;4.60;99.90;;;;;;5067503;28;19916;-85
2021/10/17 02:06:30;;;;;;;;;;;4.70;99.90;;;;;;5055433;28;20364;-85
2021/10/17 02:08:57;;;;;;;;;;;4.70;99.90;;;;;;5055426;28;19908;-85
2021/10/17 02:11:22;;;;;;;;;;;4.80;99.90;;;;;;5055350;28;19913;-84
2021/10/17 02:13:48;;;;;;;;;;;4.70;99.90;;;;;;5073525;28;20379;-85
2021/10/17 02:16:13;;;;;;;;;;;4.70;99.90;;;;;;5071752;28;19916;-84
2021/10/17 02:18:39;;;;;;;;;;;4.70;99.90;;;;;;5072008;28;19912;-84
2021/10/17 02:21:04;;;;;;;;;;;4.80;99.90;;;;;;5071717;28;19916;-84
2021/10/17 02:23:31;;;;;;;;;;;4.80;99.90;;;;;;5071906;28;19931;-85
2021/10/17 02:25:56;;;;;;;;;;;4.80;99.90;;;;;;5072680;28;19908;-85
2021/10/17 02:28:21;;;;;;;;;;;4.80;99.90;;;;;;5072821;28;19920;-85
2021/10/17 02:30:47;;;;;;;;;;;4.80;99.90;;;;;;5071416;28;19908;-85
2021/10/17 02:33:12;;;;;;;;;;;4.70;99.90;;;;;;5072740;28;19909;-85
2021/10/17 02:35:38;;;;;;;;;;;4.80;99.90;;;;;;5072536;28;19909;-86
2021/10/17 02:38:04;;;;;;;;;;;4.80;99.90;;;;;;5071622;28;19966;-85
2021/10/17 02:40:29;;;;;;;;;;;4.80;99.90;;;;;;5054742;28;19912;-85
2021/10/17 02:42:55;;;;;;;;;;;4.80;99.90;;;;;;5072518;28;19909;-85
2021/10/17 02:45:20;;;;;;;;;;;4.70;99.90;;;;;;5071226;28;19908;-86
2021/10/17 02:47:46;;;;;;;;;;;4.80;99.90;;;;;;5072592;28;19908;-84
2021/10/17 02:50:12;;;;;;;;;;;4.80;99.90;;;;;;5071380;28;19912;-84
2021/10/17 02:52:37;;;;;;;;;;;4.70;99.90;;;;;;5072462;28;20291;-85
2021/10/17 02:55:03;;;;;;;;;;;4.80;99.90;;;;;;5072440;28;20389;-85
2021/10/17 02:57:28;;;;;;;;;;;4.80;99.90;;;;;;5054286;28;19923;-84
2021/10/17 02:59:54;;;;;;;;;;;4.80;99.90;;;;;;5071055;28;19912;-84
2021/10/17 03:02:19;;;;;;;;;;;4.70;99.90;;;;;;5072072;28;19952;-85
2021/10/17 03:04:45;;;;;;;;;;;4.80;99.90;;;;;;5071135;28;20262;-85
2021/10/17 03:07:10;;;;;;;;;;;4.80;99.90;;;;;;5070632;28;19908;-84
2021/10/17 03:09:36;;;;;;;;;;;4.90;99.90;;;;;;5070680;28;20018;-84
2021/10/17 03:12:01;;;;;;;;;;;4.90;99.90;;;;;;5071863;28;20280;-84
2021/10/17 03:14:26;;;;;;;;;;;4.90;99.90;;;;;;5071869;28;19908;-84
2021/10/17 03:16:52;;;;;;;;;;;4.90;99.90;;;;;;5072232;28;19919;-84
2021/10/17 03:19:17;;;;;;;;;;;4.90;99.90;;;;;;5070421;28;19920;-84
2021/10/17 03:21:46;;;;;;;;;;;4.90;99.90;;;;;;5070341;28;19909;-84
2021/10/17 03:24:12;;;;;;;;;;;4.90;99.90;;;;;;5070530;28;19909;-84
2021/10/17 03:26:38;;;;;;;;;;;4.90;99.90;;;;;;5053661;28;19916;-84
2021/10/17 03:29:03;;;;;;;;;;;4.90;99.90;;;;;;5071093;28;20000;-84
2021/10/17 03:31:32;;;;;;;;;;;4.80;99.90;;;;;;5070693;28;20025;-84
2021/10/17 03:33:57;;;;;;;;;;;4.80;99.90;;;;;;5070894;28;19909;-84
2021/10/17 03:36:23;;;;;;;;;;;4.80;99.90;;;;;;5070835;28;19938;-84
2021/10/17 03:38:48;;;;;;;;;;;4.70;99.90;;;;;;5067434;28;19913;-84
2021/10/17 03:41:14;;;;;;;;;;;4.70;99.90;;;;;;5071977;28;19915;-85
2021/10/17 03:43:40;;;;;;;;;;;4.60;99.90;;;;;;5074477;28;19943;-84
2021/10/17 03:46:06;;;;;;;;;;;4.60;99.90;;;;;;5075686;28;20376;-84
2021/10/17 03:48:32;;;;;;;;;;;4.50;99.90;;;;;;5074553;28;19912;-84
2021/10/17 03:50:57;;;;;;;;;;;4.60;99.90;;;;;;5075596;28;19916;-84
2021/10/17 03:53:23;;;;;;;;;;;4.50;99.90;;;;;;5074233;28;19957;-84
2021/10/17 03:55:48;;;;;;;;;;;4.50;99.90;;;;;;5075638;28;19915;-84
2021/10/17 03:58:14;;;;;;;;;;;4.40;99.90;;;;;;5073993;28;19916;-84
2021/10/17 04:00:39;;;;;;;;;;;4.30;99.90;;;;;;5075711;28;19955;-84
2021/10/17 04:03:05;;;;;;;;;;;4.30;99.90;;;;;;5073806;28;20376;-84
2021/10/17 04:05:30;;;;;;;;;;;4.30;99.90;;;;;;5073816;28;19912;-85
2021/10/17 04:07:56;;;;;;;;;;;4.20;99.90;;;;;;5073835;28;19948;-84
2021/10/17 04:10:21;;;;;;;;;;;4.30;99.90;;;;;;5075160;28;20292;-84
2021/10/17 04:12:46;;;;;;;;;;;4.20;99.90;;;;;;5073700;28;19908;-85
2021/10/17 04:15:12;;;;;;;;;;;4.10;99.90;;;;;;5073425;28;20376;-84
2021/10/17 04:17:37;;;;;;;;;;;4.10;99.90;;;;;;5073734;28;19908;-84
2021/10/17 04:20:03;;;;;;;;;;;4.00;99.90;;;;;;5073687;28;19913;-84
2021/10/17 04:22:29;;;;;;;;;;;3.90;99.90;;;;;;5074782;28;19908;-84
2021/10/17 04:24:54;;;;;;;;;;;3.90;99.90;;;;;;5073488;28;19952;-84
2021/10/17 04:27:20;;;;;;;;;;;3.90;99.90;;;;;;5073626;28;19942;-84
2021/10/17 04:29:45;;;;;;;;;;;3.80;99.90;;;;;;5073539;28;19909;-84
2021/10/17 04:32:11;;;;;;;;;;;3.70;99.90;;;;;;5073847;28;19908;-84
2021/10/17 04:34:37;;;;;;;;;;;3.70;99.90;;;;;;5073825;28;19915;-83
2021/10/17 04:37:03;;;;;;;;;;;3.70;99.90;;;;;;5076192;28;20003;-84
2021/10/17 04:39:28;;;;;;;;;;;3.70;99.90;;;;;;5057946;28;19912;-84
2021/10/17 04:41:54;;;;;;;;;;;3.70;99.90;;;;;;5074944;28;19915;-84
2021/10/17 04:44:19;;;;;;;;;;;3.60;99.90;;;;;;5074470;28;19959;-85
2021/10/17 04:46:45;;;;;;;;;;;3.50;99.90;;;;;;5073839;28;19908;-84
2021/10/17 04:49:11;;;;;;;;;;;3.50;99.90;;;;;;5057325;28;19908;-84
2021/10/17 04:51:36;;;;;;;;;;;3.50;99.90;;;;;;5074671;28;19908;-84
2021/10/17 04:54:02;;;;;;;;;;;3.40;99.90;;;;;;5074364;28;19962;-84
2021/10/17 04:56:27;;;;;;;;;;;3.40;99.90;;;;;;5073296;28;19912;-84
2021/10/17 04:58:53;;;;;;;;;;;3.40;99.90;;;;;;5072880;28;19990;-84
2021/10/17 05:01:18;;;;;;;;;;;3.40;99.90;;;;;;5073009;28;19912;-84
2021/10/17 05:03:44;;;;;;;;;;;3.30;99.90;;;;;;5072846;28;19916;-84
2021/10/17 05:06:12;;;;;;;;;;;3.30;99.90;;;;;;5074428;28;19909;-84
2021/10/17 05:08:38;;;;;;;;;;;3.20;99.90;;;;;;5070052;28;20519;-84
2021/10/17 05:11:04;;;;;;;;;;;3.10;99.90;;;;;;5056312;28;19908;-84
2021/10/17 05:13:29;;;;;;;;;;;3.00;99.90;;;;;;5073114;28;19939;-84
2021/10/17 05:15:55;;;;;;;;;;;3.00;99.90;;;;;;5074105;28;19935;-84
2021/10/17 05:18:20;;;;;;;;;;;3.00;99.90;;;;;;5072998;28;20376;-83
2021/10/17 05:20:46;;;;;;;;;;;2.90;99.90;;;;;;5072780;28;19970;-84
2021/10/17 05:23:13;;;;;;;;;;;2.80;99.90;;;;;;5073066;28;20100;-84
2021/10/17 05:25:39;;;;;;;;;;;2.80;99.90;;;;;;5073505;28;19944;-84
2021/10/17 05:28:05;;;;;;;;;;;2.70;99.90;;;;;;5057215;28;19989;-84
2021/10/17 05:30:32;;;;;;;;;;;2.70;99.90;;;;;;5072969;28;19943;-84
2021/10/17 05:32:58;;;;;;;;;;;2.60;99.90;;;;;;5072811;28;19908;-84
2021/10/17 05:35:23;;;;;;;;;;;2.70;99.90;;;;;;5074479;28;19955;-84
2021/10/17 05:37:49;;;;;;;;;;;2.60;99.90;;;;;;5074109;28;19908;-84
2021/10/17 05:40:14;;;;;;;;;;;2.60;99.90;;;;;;5072175;28;19912;-84
2021/10/17 05:42:39;;;;;;;;;;;2.70;99.90;;;;;;5073751;28;20292;-84
2021/10/17 05:45:05;;;;;;;;;;;2.60;99.90;;;;;;5072235;28;19909;-84
2021/10/17 05:47:31;;;;;;;;;;;2.50;99.90;;;;;;5073666;28;19916;-84
2021/10/17 05:49:56;;;;;;;;;;;2.50;99.90;;;;;;5081315;28;19908;-84
2021/10/17 05:52:22;;;;;;;;;;;2.50;99.90;;;;;;5071806;28;19912;-84
2021/10/17 05:54:47;;;;;;;;;;;2.50;99.90;;;;;;5072518;28;20284;-84
2021/10/17 05:57:13;;;;;;;;;;;2.40;99.90;;;;;;5072019;28;19916;-84
2021/10/17 05:59:38;;;;;;;;;;;2.30;99.90;;;;;;5069752;28;20548;-84
2021/10/17 06:02:04;;;;;;;;;;;2.20;99.90;;;;;;5071927;28;20007;-84
2021/10/17 06:04:29;;;;;;;;;;;2.30;99.90;;;;;;5072737;28;20283;-84
2021/10/17 06:06:57;;;;;;;;;;;2.20;99.90;;;;;;5071895;28;20137;-84
2021/10/17 06:09:22;;;;;;;;;;;2.20;99.90;;;;;;5072464;28;19913;-84
2021/10/17 06:11:48;;;;;;;;;;;2.20;99.90;;;;;;5072268;28;20011;-84
2021/10/17 06:14:13;;;;;;;;;;;2.20;99.90;;;;;;5073339;28;19913;-85
2021/10/17 06:16:39;;;;;;;;;;;2.20;99.90;;;;;;5072208;28;19948;-85
2021/10/17 06:19:04;;;;;;;;;;;2.20;99.90;;;;;;5072055;28;19912;-85
2021/10/17 06:21:30;;;;;;;;;;;2.20;99.90;;;;;;5072109;28;20272;-84
2021/10/17 06:23:55;;;;;;;;;;;2.30;99.90;;;;;;5071922;28;19915;-84
2021/10/17 06:26:21;;;;;;;;;;;2.40;99.90;;;;;;5073482;28;19944;-84
2021/10/17 06:28:46;;;;;;;;;;;2.50;99.90;;;;;;5073169;28;19934;-85
2021/10/17 06:31:12;;;;;;;;;;;2.50;99.90;;;;;;5072021;28;20280;-85
2021/10/17 06:33:37;;;;;;;;;;;2.70;99.90;;;;;;5073379;28;19916;-85
2021/10/17 06:36:03;;;;;;;;;;;2.70;99.90;;;;;;5072211;28;19908;-84
2021/10/17 06:38:28;;;;;;;;;;;2.90;99.90;;;;;;5071840;28;19914;-85
2021/10/17 06:40:54;;;;;;;;;;;2.90;99.90;;;;;;5072219;28;19915;-84
2021/10/17 06:43:19;;;;;;;;;;;3.10;99.90;;;;;;5071598;28;19966;-84
2021/10/17 06:45:45;;;;;;;;;;;3.10;99.90;;;;;;5073441;28;19909;-85
2021/10/17 06:48:11;;;;;;;;;;;3.10;99.90;;;;;;5054617;28;19915;-85
2021/10/17 06:50:36;;;;;;;;;;;3.10;99.90;;;;;;5073467;28;20283;-84
2021/10/17 06:53:02;;;;;;;;;;;3.10;99.90;;;;;;5071665;28;20327;-85
2021/10/17 06:55:27;;;;;;;;;;;3.20;99.90;;;;;;5071398;28;19915;-85
2021/10/17 06:57:53;;;;;;;;;;;3.30;99.90;;;;;;5072526;28;19999;-85
2021/10/17 07:00:19;;;;;;;;;;;3.40;99.90;;;;;;5072230;28;19913;-84
2021/10/17 07:02:44;;;;;;;;;;;3.30;99.90;;;;;;5093832;28;19990;-87
2021/10/17 07:05:10;;;;;;;;;;;3.40;99.90;;;;;;5097422;28;19897;-86
2021/10/17 07:07:35;;;;;;;;;;;3.60;99.90;;;;;;5097468;28;19897;-87
2021/10/17 07:10:01;;;;;;;;;;;3.80;99.90;;;;;;5097484;28;19912;-86
2021/10/17 07:12:26;;;;;;;;;;;4.10;99.90;;;;;;5089484;28;19983;-85
2021/10/17 07:14:52;;;;;;;;;;;4.20;99.90;;;;;;5085320;28;19917;-86
2021/10/17 07:17:18;;;;;;;;;;;4.20;99.90;;;;;;5084435;28;19915;-86
2021/10/17 07:19:44;;;;;;;;;;;4.20;99.90;;;;;;5059391;28;19912;-85
2021/10/17 07:22:09;;;;;;;;;;;4.40;99.90;;;;;;5077325;28;20381;-85
2021/10/17 07:24:35;;;;;;;;;;;4.60;99.90;;;;;;5077318;28;19951;-84
2021/10/17 07:27:00;;;;;;;;;;;4.80;99.90;;;;;;5075962;28;20304;-84
2021/10/17 07:29:26;;;;;;;;;;;4.90;99.90;;;;;;5075075;28;20029;-84
2021/10/17 07:31:52;;;;;;;;;;;4.90;99.90;;;;;;5076432;28;19909;-84
2021/10/17 07:34:17;;;;;;;;;;;5.20;99.90;;;;;;5074693;28;19912;-84
2021/10/17 07:36:43;;;;;;;;;;;5.40;99.90;;;;;;5075110;28;20042;-84
2021/10/17 07:39:11;;;;;;;;;;;5.60;99.90;;;;;;5075154;28;19913;-84
2021/10/17 07:41:37;;;;;;;;;;;5.70;99.90;;;;;;5058661;28;20003;-84
2021/10/17 07:44:02;;;;;;;;;;;5.90;99.90;;;;;;5058108;28;19913;-84
2021/10/17 07:46:28;;;;;;;;;;;6.00;99.90;;;;;;5074912;28;19916;-84
2021/10/17 07:48:57;;;;;;;;;;;6.20;99.90;;;;;;5058644;28;19908;-84
2021/10/17 07:51:22;;;;;;;;;;;6.30;99.90;;;;;;5076382;28;19913;-85
2021/10/17 07:53:47;;;;;;;;;;;6.70;99.90;;;;;;5074240;28;19915;-84
2021/10/17 07:56:13;;;;;;;;;;;6.90;99.90;;;;;;5075857;28;19916;-84
2021/10/17 07:58:38;;;;;;;;;;;7.10;99.90;;;;;;5074673;28;20011;-84
2021/10/17 08:01:04;;;;;;;;;;;7.50;99.90;;;;;;5074262;28;19915;-84
2021/10/17 08:03:29;;;;;;;;;;;7.60;99.90;;;;;;5073810;28;19909;-84
2021/10/17 08:05:55;;;;;;;;;;;8.10;99.90;;;;;;5073898;28;19909;-84
2021/10/17 08:08:20;;;;;;;;;;;9.70;99.90;;;;;;5073928;28;19908;-85
2021/10/17 08:10:46;;;;;;;;;;;11.50;99.90;;;;;;5073778;28;19956;-84
2021/10/17 08:13:11;;;;;;;;;;;12.70;99.90;;;;;;5073682;28;19954;-85
2021/10/17 08:15:37;;;;;;;;;;;13.30;99.90;;;;;;5074988;28;19909;-85
2021/10/17 08:18:02;;;;;;;;;;;14.00;99.90;;;;;;5073817;28;19912;-85
2021/10/17 08:20:28;;;;;;;;;;;14.90;99.90;;;;;;5073735;28;19973;-85
2021/10/17 08:22:53;;;;;;;;;;;15.10;99.90;;;;;;5074934;28;19947;-84
2021/10/17 08:25:19;;;;;;;;;;;15.10;99.90;;;;;;5073623;28;19908;-85
2021/10/17 08:27:44;;;;;;;;;;;14.70;99.90;;;;;;5074345;28;19909;-85
2021/10/17 08:30:10;;;;;;;;;;;15.40;99.90;;;;;;5073699;28;19919;-86
2021/10/17 08:32:36;;;;;;;;;;;15.70;99.90;;;;;;5074296;28;20003;-85
2021/10/17 08:35:02;;;;;;;;;;;15.90;99.90;;;;;;5058052;28;19912;-86
2021/10/17 08:37:27;;;;;;;;;;;16.60;99.90;;;;;;5073514;28;19915;-85
2021/10/17 08:39:53;;;;;;;;;;;16.90;99.90;;;;;;5073232;28;19916;-85
2021/10/17 08:42:19;;;;;;;;;;;17.00;99.90;;;;;;5056419;28;19913;-86
2021/10/17 08:44:45;;;;;;;;;;;17.20;99.90;;;;;;5056641;28;19915;-85
2021/10/17 08:47:11;;;;;;;;;;;17.10;99.90;;;;;;5073403;28;19915;-85
2021/10/17 08:49:37;;;;;;;;;;;17.20;99.90;;;;;;5073125;28;20183;-85
2021/10/17 08:52:04;;;;;;;;;;;18.40;99.90;;;;;;5074304;28;19966;-86
2021/10/17 08:54:29;;;;;;;;;;;18.80;99.90;;;;;;5072835;28;19908;-86
2021/10/17 08:56:55;;;;;;;;;;;19.80;98.10;;;;;;5072758;28;19908;-85
2021/10/17 08:59:20;;;;;;;;;;;20.50;96.50;;;;;;5072894;28;19920;-85
2021/10/17 09:01:46;;;;;;;;;;;19.40;96.90;;;;;;5073964;28;19951;-85
2021/10/17 09:04:13;;;;;;;;;;;18.90;97.00;;;;;;5073680;28;19909;-85
2021/10/17 09:06:39;;;;;;;;;;;19.50;96.70;;;;;;5056843;28;19908;-84
2021/10/17 09:09:06;;;;;;;;;;;19.00;97.00;;;;;;5074119;28;19915;-85
2021/10/17 09:11:37;;;;;;;;;;;19.00;96.70;;;;;;5056990;28;20055;-84
2021/10/17 09:14:14;;;;;;;;;;;19.20;97.70;;;;;;5055241;28;20414;-84
2021/10/17 09:16:40;;;;;;;;;;;19.30;96.20;;;;;;5056207;28;19909;-83
2021/10/17 09:19:16;;;;;;;;;;;17.90;98.10;;;;;;5056898;28;19913;-89
2021/10/17 09:21:56;;;;;;;;;;;18.90;97.30;;;;;;5056634;28;19909;-86
2021/10/17 09:24:29;;;;;;;;;;;19.70;96.10;;;;;;5074207;28;19908;-87
2021/10/17 09:27:04;;;;;;;;;;;20.30;95.40;;;;;;5055779;28;19909;-85
2021/10/17 09:29:30;;;;;;;;;;;19.90;95.70;;;;;;5056175;28;20284;-85
2021/10/17 09:31:56;;;;;;;;;;;20.30;95.40;;;;;;5073858;28;20438;-86
2021/10/17 09:34:28;;;;;;;;;;;20.30;94.50;;;;;;5072718;28;20008;-85
2021/10/17 09:37:07;;;;;;;;;;;19.90;95.40;;;;;;5056111;28;20384;-86
2021/10/17 09:39:35;;;;;;;;;;;19.50;95.90;;;;;;5054975;28;19923;-85
2021/10/17 09:42:01;;;;;;;;;;;19.30;95.90;;;;;;5072369;28;19920;-86
2021/10/17 09:44:37;;;;;;;;;;;19.60;94.80;;;;;;5055678;28;19913;-85
2021/10/17 09:47:02;;;;;;;;;;;18.70;96.40;;;;;;5055887;28;19956;-86
2021/10/17 09:49:28;;;;;;;;;;;17.60;98.20;;;;;;5072480;28;19954;-86
2021/10/17 09:52:13;;;;;;;;;;;16.80;98.50;;;;;;5081581;28;20264;-86
2021/10/17 09:54:39;;;;;;;;;;;16.80;99.90;;;;;;5056067;28;19909;-86
2021/10/17 09:57:08;;;;;;;;;;;16.60;99.80;;;;;;5055525;28;20003;-86
2021/10/17 09:59:34;;;;;;;;;;;16.80;99.90;;;;;;5068674;28;19923;-87
2021/10/17 10:02:01;;;;;;;;;;;16.90;99.90;;;;;;5054261;28;19909;-86
2021/10/17 10:04:27;;;;;;;;;;;16.30;99.90;;;;;;5056718;28;19914;-87
2021/10/17 10:06:54;;;;;;;;;;;16.80;99.90;;;;;;5056202;28;20003;-88
2021/10/17 10:09:21;;;;;;;;;;;15.50;99.90;;;;;;5055965;28;20281;-88
2021/10/17 10:11:47;;;;;;;;;;;15.40;99.90;;;;;;5056320;28;19908;-87
2021/10/17 10:14:13;;;;;;;;;;;14.80;99.90;;;;;;5056052;28;19920;-88
2021/10/17 10:16:39;;;;;;;;;;;14.10;99.90;;;;;;5055518;28;20542;-89
2021/10/17 10:19:06;;;;;;;;;;;14.00;99.90;;;;;;5055044;28;19913;-89
2021/10/17 10:21:32;;;;;;;;;;;13.60;99.90;;;;;;5055678;28;19924;-89
2021/10/17 10:24:02;;;;;;;;;;;13.90;99.90;;;;;;5055710;28;19930;-89
2021/10/17 10:26:29;;;;;;;;;;;14.40;99.90;;;;;;5055946;28;19944;-88
2021/10/17 10:28:55;;;;;;;;;;;14.50;99.90;;;;;;5052822;28;19915;-89
2021/10/17 10:31:39;;;;;;;;;;;14.30;99.90;;;;;;5072682;28;20292;-89
2021/10/17 10:34:05;;;;;;;;;;;14.40;99.90;;;;;;5072708;28;20372;-89
2021/10/17 10:36:38;;;;;;;;;;;14.10;99.90;;;;;;5054595;28;19966;-88
2021/10/17 10:39:05;;;;;;;;;;;14.40;99.90;;;;;;5055872;28;19912;-88
2021/10/17 10:41:31;;;;;;;;;;;13.90;99.90;;;;;;5055733;28;20388;-89
2021/10/17 10:44:13;;;;;;;;;;;13.80;99.90;;;;;;5071934;28;20356;-88
2021/10/17 10:46:38;;;;;;;;;;;13.90;99.90;;;;;;5073365;28;19944;-88
2021/10/17 10:49:04;;;;;;;;;;;14.30;99.90;;;;;;5055546;28;19908;-88
2021/10/17 10:51:38;;;;;;;;;;;14.20;99.90;;;;;;5073072;28;19931;-89
2021/10/17 10:54:03;;;;;;;;;;;15.10;99.90;;;;;;5055525;28;19918;-88
2021/10/17 10:56:41;;;;;;;;;;;14.00;99.90;;;;;;5072283;28;20007;-88
2021/10/17 10:59:07;;;;;;;;;;;13.90;99.90;;;;;;5064182;28;19924;-89
2021/10/17 11:01:51;;;;;;;;;;;14.40;99.90;;;;;;5055465;28;19916;-90
2021/10/17 11:04:35;;;;;;;;;;;14.50;99.90;;;;;;5055175;28;19908;-88
2021/10/17 11:07:20;;;;;;;;;;;14.60;99.90;;;;;;5074087;28;19912;-88
2021/10/17 11:09:46;;;;;;;;;;;14.30;99.90;;;;;;5056457;28;19908;-87
2021/10/17 11:12:31;;;;;;;;;;;14.70;99.90;;;;;;5055379;28;19973;-88
2021/10/17 11:15:00;;;;;;;;;;;14.40;99.90;;;;;;5055870;28;19909;-87
2021/10/17 11:17:28;;;;;;;;;;;14.00;99.90;;;;;;5074439;28;19908;-88
2021/10/17 11:19:53;;;;;;;;;;;14.70;99.90;;;;;;5055828;28;19912;-88
2021/10/17 11:22:19;;;;;;;;;;;17.30;99.90;;;;;;5071925;28;19912;-88
2021/10/17 11:24:45;;;;;;;;;;;16.20;99.90;;;;;;5072551;28;20383;-88
2021/10/17 11:27:12;;;;;;;;;;;14.70;99.90;;;;;;5072431;28;20007;-88
2021/10/17 11:29:38;;;;;;;;;;;13.60;99.90;;;;;;5055077;28;19908;-87
2021/10/17 11:32:07;;;;;;;;;;;13.50;99.90;;;;;;5055865;28;19915;-87
2021/10/17 11:34:33;;;;;;;;;;;13.30;99.90;;;;;;5055164;28;20289;-88
2021/10/17 11:37:18;;;;;;;;;;;13.20;99.90;;;;;;5072228;28;19909;-88
2021/10/17 11:39:53;;;;;;;;;;;13.00;99.90;;;;;;5057910;28;20292;-87
2021/10/17 11:42:18;;;;;;;;;;;12.70;99.90;;;;;;5059506;28;20468;-88
2021/10/17 11:44:44;;;;;;;;;;;12.50;99.90;;;;;;5076689;28;19909;-87
2021/10/17 11:47:09;;;;;;;;;;;12.60;99.90;;;;;;5076720;28;19916;-87
2021/10/17 11:49:35;;;;;;;;;;;12.90;99.90;;;;;;5072072;28;19940;-88
2021/10/17 11:52:03;;;;;;;;;;;13.00;99.90;;;;;;5073051;28;19955;-88
2021/10/17 11:54:39;;;;;;;;;;;13.10;99.90;;;;;;5055684;28;19915;-88
2021/10/17 11:57:05;;;;;;;;;;;13.20;99.90;;;;;;5071409;28;20003;-88
2021/10/17 11:59:30;;;;;;;;;;;13.40;99.90;;;;;;5071491;28;20008;-88
2021/10/17 12:01:55;;;;;;;;;;;13.20;99.90;;;;;;5072432;28;19909;-89
2021/10/17 12:04:39;;;;;;;;;;;13.00;99.90;;;;;;5074909;28;19999;-88
2021/10/17 12:07:04;;;;;;;;;;;13.20;99.90;;;;;;5058130;28;19908;-87
2021/10/17 12:09:30;;;;;;;;;;;13.20;99.90;;;;;;5076191;28;19948;-89
2021/10/17 12:11:59;;;;;;;;;;;13.40;99.90;;;;;;5076363;28;19909;-87
2021/10/17 12:14:25;;;;;;;;;;;13.10;99.90;;;;;;5074899;28;19908;-88
2021/10/17 12:16:54;;;;;;;;;;;13.30;99.90;;;;;;5076807;28;19931;-89
2021/10/17 12:19:24;;;;;;;;;;;13.50;99.90;;;;;;5059609;28;20046;-89
2021/10/17 12:21:49;;;;;;;;;;;13.60;99.90;;;;;;5057969;28;20380;-87
2021/10/17 12:24:17;;;;;;;;;;;14.00;99.90;;;;;;5075229;28;19909;-87
2021/10/17 12:26:50;;;;;;;;;;;14.00;99.90;;;;;;5058599;28;19965;-87
2021/10/17 12:29:17;;;;;;;;;;;13.80;99.90;;;;;;5059425;28;19908;-88
2021/10/17 12:31:42;;;;;;;;;;;13.60;99.90;;;;;;5077518;28;19963;-89
2021/10/17 12:34:08;;;;;;;;;;;13.60;99.90;;;;;;5075986;28;19912;-88
2021/10/17 12:36:36;;;;;;;;;;;13.10;99.90;;;;;;5058854;28;19909;-88
2021/10/17 12:39:06;;;;;;;;;;;12.90;99.90;;;;;;5057698;28;19916;-88
2021/10/17 12:41:31;;;;;;;;;;;12.70;99.90;;;;;;5059519;28;19908;-87
2021/10/17 12:44:05;;;;;;;;;;;12.70;99.90;;;;;;5077134;28;20369;-89
2021/10/17 12:46:31;;;;;;;;;;;13.00;99.90;;;;;;5058933;28;20277;-90
2021/10/17 12:48:57;;;;;;;;;;;13.20;99.90;;;;;;5077051;28;19909;-88
2021/10/17 12:51:40;;;;;;;;;;;13.30;99.90;;;;;;5059917;28;19908;-89
2021/10/17 12:54:07;;;;;;;;;;;13.40;99.90;;;;;;5076312;28;19961;-89
2021/10/17 12:56:34;;;;;;;;;;;13.30;99.90;;;;;;5058714;28;19912;-89
2021/10/17 12:59:13;;;;;;;;;;;13.20;99.90;;;;;;5050752;28;19916;-88
2021/10/17 13:01:57;;;;;;;;;;;13.00;99.90;;;;;;5060932;28;19915;-88
2021/10/17 13:04:35;;;;;;;;;;;13.00;99.90;;;;;;5085123;28;20677;-88
2021/10/17 13:07:02;;;;;;;;;;;12.90;99.90;;;;;;5068265;28;20011;-87
2021/10/17 13:09:38;;;;;;;;;;;13.00;99.90;;;;;;5084556;28;19908;-88
2021/10/17 13:12:12;;;;;;;;;;;12.90;99.90;;;;;;5068529;28;19908;-89
2021/10/17 13:14:38;;;;;;;;;;;12.70;99.90;;;;;;5066227;28;19909;-87
2021/10/17 13:17:03;;;;;;;;;;;12.50;99.90;;;;;;5084164;28;19908;-88
2021/10/17 13:19:29;;;;;;;;;;;12.30;99.90;;;;;;5084580;28;19912;-88
2021/10/17 13:21:54;;;;;;;;;;;12.20;99.90;;;;;;5083163;28;20355;-89
2021/10/17 13:24:20;;;;;;;;;;;12.20;99.90;;;;;;5085355;28;19986;-87
2021/10/17 13:26:48;;;;;;;;;;;12.30;99.90;;;;;;5074615;28;19915;-88
2021/10/17 13:29:14;;;;;;;;;;;12.20;99.90;;;;;;5049352;28;19908;-87
2021/10/17 13:31:39;;;;;;;;;;;12.30;99.90;;;;;;5073845;28;20266;-87
2021/10/17 13:34:05;;;;;;;;;;;12.40;99.90;;;;;;5074776;28;19916;-88
2021/10/17 13:36:30;;;;;;;;;;;12.80;99.90;;;;;;5072636;28;19915;-88
2021/10/17 13:38:56;;;;;;;;;;;13.20;99.90;;;;;;5072663;28;19920;-89
2021/10/17 13:41:21;;;;;;;;;;;13.40;99.90;;;;;;5073159;28;20046;-89
2021/10/17 13:43:47;;;;;;;;;;;13.30;99.90;;;;;;5073535;28;19908;-88
2021/10/17 13:46:12;;;;;;;;;;;13.30;99.90;;;;;;5073626;28;20288;-88
2021/10/17 13:48:41;;;;;;;;;;;13.40;99.90;;;;;;5073862;28;19920;-88
2021/10/17 13:51:07;;;;;;;;;;;13.40;99.90;;;;;;5074586;28;20372;-88
2021/10/17 13:53:32;;;;;;;;;;;12.60;99.90;;;;;;5074142;28;19999;-88
2021/10/17 13:55:58;;;;;;;;;;;12.70;99.90;;;;;;5073394;28;19952;-88
2021/10/17 13:58:23;;;;;;;;;;;12.60;99.90;;;;;;5072962;28;19995;-87
2021/10/17 14:00:49;;;;;;;;;;;12.20;99.90;;;;;;5056371;28;19913;-87
2021/10/17 14:03:14;;;;;;;;;;;12.20;99.90;;;;;;5056248;28;19908;-88
2021/10/17 14:05:40;;;;;;;;;;;12.10;99.90;;;;;;5074186;28;20253;-88
2021/10/17 14:08:05;;;;;;;;;;;11.90;99.90;;;;;;5072794;28;19915;-89
2021/10/17 14:10:31;;;;;;;;;;;11.90;99.90;;;;;;5072779;28;19915;-88
2021/10/17 14:12:56;;;;;;;;;;;11.50;99.90;;;;;;5073080;28;20446;-89
2021/10/17 14:15:22;;;;;;;;;;;11.20;99.90;;;;;;5072242;28;19916;-88
2021/10/17 14:17:47;;;;;;;;;;;11.10;99.90;;;;;;5072774;28;20265;-87
2021/10/17 14:20:13;;;;;;;;;;;11.00;99.90;;;;;;5072610;28;20027;-87